createdAt,value
2022-11-13T00:01:19.668Z,48.72
2022-11-13T00:04:40.276Z,42.50
2022-11-13T00:08:01.224Z,49.25
2022-11-13T00:11:22.223Z,41.33
2022-11-13T00:14:44.000Z,46.25
2022-11-13T00:18:04.718Z,47.40
2022-11-13T00:21:27.256Z,44.65
2022-11-13T00:24:47.659Z,45.30
2022-11-13T00:28:08.275Z,44.72
2022-11-13T00:31:29.623Z,44.42
2022-11-13T00:34:50.181Z,43.83
2022-11-13T00:38:10.768Z,47.65
2022-11-13T00:41:31.405Z,43.55
2022-11-13T00:44:51.833Z,42.80
2022-11-13T00:48:12.366Z,45.65
2022-11-13T00:51:33.040Z,47.45
2022-11-13T00:54:53.751Z,47.65
2022-11-13T00:58:15.071Z,47.30
2022-11-13T01:01:35.760Z,47.62
2022-11-13T01:04:56.578Z,51.00
2022-11-13T01:08:17.299Z,53.72
2022-11-13T01:11:37.954Z,52.67
2022-11-13T01:14:58.406Z,57.80
2022-11-13T01:18:19.187Z,51.00
2022-11-13T01:21:39.730Z,46.13
2022-11-13T01:25:00.489Z,55.20
2022-11-13T01:31:41.556Z,56.50
2022-11-13T01:35:02.090Z,48.17
2022-11-13T01:38:23.218Z,50.70
2022-11-13T01:41:43.777Z,51.92
2022-11-13T01:45:24.779Z,51.00
2022-11-13T01:48:51.451Z,48.72
2022-11-13T01:52:15.098Z,47.38
2022-11-13T01:55:36.034Z,48.90
2022-11-13T01:59:05.021Z,46.78
2022-11-13T02:02:25.625Z,47.70
2022-11-13T02:05:46.428Z,51.10
2022-11-13T02:09:08.052Z,48.67
2022-11-13T02:12:34.061Z,51.17
2022-11-13T02:15:56.501Z,52.53
2022-11-13T02:19:24.588Z,51.42
2022-11-13T02:22:51.805Z,48.67
2022-11-13T02:26:13.175Z,44.55
2022-11-13T02:29:33.820Z,49.22
2022-11-13T02:32:56.605Z,51.20
2022-11-13T02:36:21.074Z,44.60
2022-11-13T02:39:41.573Z,44.75
2022-11-13T02:43:01.879Z,48.57
2022-11-13T02:46:22.341Z,51.88
2022-11-13T02:49:42.910Z,47.90
2022-11-13T02:53:04.307Z,60.72
2022-11-13T02:56:24.897Z,56.17
2022-11-13T02:59:45.387Z,60.88
2022-11-13T03:03:05.875Z,55.72
2022-11-13T03:06:26.268Z,49.03
2022-11-13T03:09:46.858Z,47.53
2022-11-13T03:13:07.231Z,51.97
2022-11-13T03:16:28.305Z,50.60
2022-11-13T03:19:49.083Z,64.35
2022-11-13T03:23:09.531Z,61.17
2022-11-13T03:26:30.160Z,55.47
2022-11-13T03:29:50.732Z,68.20
2022-11-13T03:33:11.273Z,62.55
2022-11-13T03:36:31.835Z,57.72
2022-11-13T03:39:52.373Z,48.97
2022-11-13T03:43:12.834Z,53.90
2022-11-13T03:46:33.520Z,84.10
2022-11-13T03:49:53.967Z,82.57
2022-11-13T03:53:14.935Z,49.53
2022-11-13T03:56:35.411Z,75.55
2022-11-13T03:59:55.984Z,43.38
2022-11-13T04:03:16.398Z,44.15
2022-11-13T04:06:37.361Z,41.03
2022-11-13T04:09:58.357Z,47.10
2022-11-13T04:13:19.070Z,45.50
2022-11-13T04:16:39.862Z,36.92
2022-11-13T04:20:00.549Z,45.28
2022-11-13T04:23:21.406Z,42.55
2022-11-13T04:26:41.806Z,39.90
2022-11-13T04:30:02.657Z,43.90
2022-11-13T04:33:23.381Z,67.78
2022-11-13T04:36:43.887Z,42.60
2022-11-13T04:40:05.055Z,93.10
2022-11-13T04:43:25.617Z,63.50
2022-11-13T04:46:46.016Z,65.37
2022-11-13T04:50:06.706Z,47.37
2022-11-13T04:53:27.137Z,48.22
2022-11-13T04:56:47.735Z,40.70
2022-11-13T05:00:09.352Z,100.50
2022-11-13T05:03:30.184Z,69.60
2022-11-13T05:06:50.719Z,60.03
2022-11-13T05:10:11.140Z,41.13
2022-11-13T05:13:33.149Z,40.45
2022-11-13T05:16:53.582Z,46.33
2022-11-13T05:20:14.182Z,50.28
2022-11-13T05:23:35.817Z,39.95
2022-11-13T05:26:56.349Z,47.22
2022-11-13T05:30:17.145Z,55.40
2022-11-13T05:33:39.214Z,55.17
2022-11-13T05:36:59.677Z,69.20
2022-11-13T05:40:20.128Z,37.97
2022-11-13T05:43:41.520Z,52.53
2022-11-13T05:47:02.333Z,40.00
2022-11-13T05:50:23.108Z,34.15
2022-11-13T05:53:44.672Z,35.50
2022-11-13T05:57:05.378Z,39.17
2022-11-13T06:00:25.754Z,35.10
2022-11-13T06:03:47.415Z,36.45
2022-11-13T06:10:28.276Z,34.22
2022-11-13T06:13:50.041Z,40.28
2022-11-13T06:17:10.418Z,44.50
2022-11-13T06:20:30.908Z,42.47
2022-11-13T06:23:51.589Z,38.40
2022-11-13T06:27:12.244Z,38.38
2022-11-13T06:30:32.896Z,41.72
2022-11-13T06:33:54.450Z,55.30
2022-11-13T06:37:15.356Z,49.10
2022-11-13T06:40:38.190Z,50.35
2022-11-13T06:44:02.654Z,72.55
2022-11-13T06:47:23.837Z,49.35
2022-11-13T06:50:48.278Z,79.03
2022-11-13T06:54:09.310Z,58.22
2022-11-13T06:57:30.099Z,67.45
2022-11-13T07:00:51.626Z,55.78
2022-11-13T07:04:13.688Z,57.15
2022-11-13T07:07:34.107Z,56.53
2022-11-13T07:10:56.415Z,51.75
2022-11-13T07:14:17.005Z,45.88
2022-11-13T07:17:37.512Z,65.12
2022-11-13T07:20:58.840Z,46.58
2022-11-13T07:27:44.837Z,56.58
2022-11-13T07:31:06.321Z,44.30
2022-11-13T07:34:27.022Z,46.60
2022-11-13T07:37:47.287Z,53.20
2022-11-13T07:41:07.821Z,64.30
2022-11-13T07:44:52.917Z,48.85
2022-11-13T07:48:11.351Z,45.05
2022-11-13T07:51:32.195Z,48.33
2022-11-13T07:54:52.914Z,47.08
2022-11-13T07:58:13.825Z,51.25
2022-11-13T08:01:34.454Z,49.00
2022-11-13T08:04:54.731Z,54.20
2022-11-13T08:08:15.438Z,50.57
2022-11-13T08:11:36.351Z,52.38
2022-11-13T08:14:57.024Z,49.83
2022-11-13T08:18:17.433Z,50.67
2022-11-13T08:21:37.970Z,53.87
2022-11-13T08:24:58.619Z,51.28
2022-11-13T08:28:19.296Z,51.95
2022-11-13T08:31:40.881Z,53.75
2022-11-13T08:35:01.386Z,55.08
2022-11-13T08:38:23.358Z,55.72
2022-11-13T08:41:44.162Z,55.12
2022-11-13T08:45:05.271Z,56.50
2022-11-13T08:48:26.168Z,56.42
2022-11-13T08:51:46.937Z,53.13
2022-11-13T08:55:07.805Z,53.40
2022-11-13T08:58:29.238Z,45.78
2022-11-13T09:01:50.493Z,44.58
2022-11-13T09:05:11.719Z,48.72
2022-11-13T09:08:32.721Z,49.15
2022-11-13T09:11:53.438Z,45.63
2022-11-13T09:15:13.892Z,45.83
2022-11-13T09:18:34.560Z,47.05
2022-11-13T09:21:55.177Z,46.35
2022-11-13T09:25:16.057Z,44.50
2022-11-13T09:28:36.975Z,46.37
2022-11-13T09:31:57.810Z,49.17
2022-11-13T09:35:33.691Z,44.50
2022-11-13T09:38:54.187Z,43.58
2022-11-13T09:42:22.428Z,43.65
2022-11-13T09:45:43.828Z,46.92
2022-11-13T09:49:09.690Z,44.83
2022-11-13T09:52:36.294Z,42.47
2022-11-13T09:56:19.192Z,43.45
2022-11-13T10:00:11.953Z,42.78
2022-11-13T10:07:43.388Z,41.63
2022-11-13T10:11:30.696Z,44.28
2022-11-13T10:14:53.951Z,45.42
2022-11-13T10:18:26.208Z,38.45
2022-11-13T10:21:54.830Z,44.20
2022-11-13T10:25:25.971Z,43.25
2022-11-13T10:28:51.692Z,43.75
2022-11-13T10:32:24.457Z,42.38
2022-11-13T10:35:49.134Z,44.25
2022-11-13T10:39:10.563Z,42.47
2022-11-13T10:42:41.903Z,39.70
2022-11-13T10:46:05.126Z,44.97
2022-11-13T10:49:30.206Z,40.58
2022-11-13T10:52:53.794Z,40.65
2022-11-13T10:56:31.107Z,44.60
2022-11-13T10:59:51.920Z,40.53
2022-11-13T11:03:15.921Z,41.63
2022-11-13T11:10:21.671Z,38.53
2022-11-13T11:13:42.112Z,40.40
2022-11-13T11:17:05.547Z,39.63
2022-11-13T11:20:35.552Z,40.47
2022-11-13T11:24:21.981Z,36.67
2022-11-13T11:27:49.027Z,33.88
2022-11-13T11:31:22.831Z,36.28
2022-11-13T11:34:58.824Z,33.10
2022-11-13T11:38:33.700Z,34.25
2022-11-13T11:42:34.508Z,36.80
2022-11-13T11:45:56.678Z,33.92
2022-11-13T11:56:23.988Z,36.13
2022-11-13T11:59:44.276Z,36.35
2022-11-13T12:03:34.695Z,37.08
2022-11-13T12:07:13.281Z,34.15
2022-11-13T12:10:42.779Z,34.47
2022-11-13T12:14:20.274Z,37.92
2022-11-13T12:18:28.882Z,36.20
2022-11-13T12:21:58.631Z,35.53
2022-11-13T12:25:54.196Z,32.40
2022-11-13T12:29:38.914Z,32.50
2022-11-13T12:33:06.791Z,34.55
2022-11-13T12:36:28.753Z,32.58
2022-11-13T12:39:56.969Z,32.47
2022-11-13T12:43:20.236Z,32.08
2022-11-13T12:46:41.779Z,34.42
2022-11-13T12:50:25.132Z,32.58
2022-11-13T12:53:49.508Z,35.22
2022-11-13T12:57:13.156Z,34.78
2022-11-13T13:00:37.418Z,35.78
2022-11-13T13:04:29.418Z,38.15
2022-11-13T13:08:08.549Z,39.05
2022-11-13T13:11:47.144Z,34.35
2022-11-13T13:15:29.696Z,32.17
2022-11-13T13:18:50.261Z,35.28
2022-11-13T13:22:23.839Z,33.83
2022-11-13T13:25:44.428Z,36.67
2022-11-13T13:29:22.013Z,35.85
2022-11-13T13:32:57.638Z,38.33
2022-11-13T13:36:32.256Z,34.15
2022-11-13T13:39:53.042Z,37.88
2022-11-13T13:43:52.062Z,36.95
2022-11-13T13:47:32.022Z,38.10
2022-11-13T13:50:53.634Z,33.45
2022-11-13T13:54:22.229Z,32.38
2022-11-13T13:57:43.029Z,33.05
2022-11-13T14:01:22.501Z,35.15
2022-11-13T14:04:54.418Z,33.75
2022-11-13T14:08:17.829Z,32.50
2022-11-13T14:11:38.560Z,31.30
2022-11-13T14:14:58.990Z,32.58
2022-11-13T14:18:19.722Z,33.92
2022-11-13T14:21:40.334Z,32.38
2022-11-13T14:25:01.618Z,31.20
2022-11-13T14:28:29.722Z,35.55
2022-11-13T14:31:51.431Z,36.65
2022-11-13T14:35:20.843Z,33.55
2022-11-13T14:38:52.100Z,33.83
2022-11-13T14:42:37.339Z,32.35
2022-11-13T14:46:03.789Z,36.00
2022-11-13T14:49:33.902Z,32.15
2022-11-13T14:53:01.786Z,34.70
2022-11-13T14:56:33.046Z,38.30
2022-11-13T15:03:13.927Z,37.28
2022-11-13T15:06:38.231Z,31.20
2022-11-13T15:09:59.445Z,34.55
2022-11-13T15:13:20.419Z,35.40
2022-11-13T15:16:41.829Z,36.90
2022-11-13T15:20:08.261Z,36.20
2022-11-13T15:23:30.660Z,37.25
2022-11-13T15:26:51.892Z,39.10
2022-11-13T15:30:13.057Z,37.88
2022-11-13T15:33:33.606Z,38.65
2022-11-13T15:36:54.389Z,37.88
2022-11-13T15:40:15.687Z,41.35
2022-11-13T15:43:37.088Z,35.30
2022-11-13T15:46:57.854Z,37.97
2022-11-13T15:50:18.637Z,40.28
2022-11-13T15:53:39.388Z,39.35
2022-11-13T15:57:00.028Z,40.15
2022-11-13T16:00:26.451Z,36.78
2022-11-13T16:03:47.351Z,40.67
2022-11-13T16:07:16.990Z,41.53
2022-11-13T16:10:37.468Z,42.62
2022-11-13T16:13:58.073Z,39.33
2022-11-13T16:17:22.465Z,43.58
2022-11-13T16:20:42.879Z,39.47
2022-11-13T16:24:03.426Z,43.17
2022-11-13T16:27:30.002Z,39.08
2022-11-13T16:30:50.882Z,44.50
2022-11-13T16:34:11.743Z,42.70
2022-11-13T16:37:32.137Z,42.90
2022-11-13T16:40:52.673Z,41.10
2022-11-13T16:44:13.113Z,43.13
2022-11-13T16:47:33.537Z,45.25
2022-11-13T16:50:54.010Z,40.90
2022-11-13T16:54:14.880Z,41.28
2022-11-13T16:57:35.611Z,44.83
2022-11-13T17:00:59.998Z,41.08
2022-11-13T17:04:20.882Z,40.67
2022-11-13T17:11:02.257Z,43.97
2022-11-13T17:14:22.932Z,42.72
2022-11-13T17:17:43.936Z,40.97
2022-11-13T17:21:06.280Z,40.12
2022-11-13T17:24:26.979Z,41.47
2022-11-13T17:27:47.798Z,45.00
2022-11-13T17:31:12.479Z,48.00
2022-11-13T17:34:33.128Z,45.90
2022-11-13T17:37:53.830Z,40.72
2022-11-13T17:41:15.680Z,41.83
2022-11-13T17:44:36.270Z,41.13
2022-11-13T17:47:56.861Z,46.53
2022-11-13T17:51:17.359Z,41.67
2022-11-13T17:54:38.163Z,47.75
2022-11-13T17:58:00.527Z,41.53
2022-11-13T18:01:22.211Z,43.10
2022-11-13T18:04:42.821Z,39.78
2022-11-13T18:08:05.957Z,44.78
2022-11-13T18:11:29.317Z,45.83
2022-11-13T18:14:52.557Z,44.20
2022-11-13T18:18:13.159Z,46.25
2022-11-13T18:21:35.689Z,45.12
2022-11-13T18:24:56.534Z,47.78
2022-11-13T18:28:17.378Z,46.33
2022-11-13T18:31:37.897Z,46.05
2022-11-13T18:34:58.578Z,52.58
2022-11-13T18:38:19.048Z,52.85
2022-11-13T18:41:39.671Z,56.63
2022-11-13T18:45:05.471Z,58.72
2022-11-13T18:48:30.894Z,57.38
2022-11-13T18:51:51.867Z,57.75
2022-11-13T18:55:12.724Z,53.38
2022-11-13T18:58:39.655Z,54.15
2022-11-13T19:02:00.384Z,55.00
2022-11-13T19:05:21.094Z,57.40
2022-11-13T19:08:42.654Z,61.13
2022-11-13T19:12:03.069Z,55.50
2022-11-13T19:15:23.455Z,57.08
2022-11-13T19:18:50.171Z,61.88
2022-11-13T19:22:10.822Z,61.08
2022-11-13T19:25:31.555Z,58.35
2022-11-13T19:28:53.493Z,59.15
2022-11-13T19:32:14.129Z,59.05
2022-11-13T19:35:36.745Z,58.72
2022-11-13T19:38:58.030Z,56.25
2022-11-13T19:42:18.568Z,52.10
2022-11-13T19:45:39.397Z,55.78
2022-11-13T19:48:59.863Z,58.22
2022-11-13T19:52:20.419Z,53.00
2022-11-13T19:55:42.403Z,55.33
2022-11-13T19:59:03.380Z,58.28
2022-11-13T20:02:24.228Z,53.67
2022-11-13T20:05:45.305Z,59.00
2022-11-13T20:09:06.563Z,58.33
2022-11-13T20:12:29.473Z,48.42
2022-11-13T20:15:56.960Z,53.35
2022-11-13T20:19:17.472Z,52.38
2022-11-13T20:22:37.902Z,51.85
2022-11-13T20:26:01.093Z,47.33
2022-11-13T20:29:21.785Z,54.22
2022-11-13T20:32:42.379Z,52.38
2022-11-13T20:36:03.945Z,55.30
2022-11-13T20:39:24.609Z,55.63
2022-11-13T20:42:45.156Z,60.90
2022-11-13T20:46:09.057Z,57.50
2022-11-13T20:49:30.033Z,53.92
2022-11-13T20:52:50.706Z,53.95
2022-11-13T20:56:11.740Z,50.92
2022-11-13T20:59:32.484Z,51.65
2022-11-13T21:02:53.040Z,48.05
2022-11-13T21:06:16.888Z,50.63
2022-11-13T21:09:37.532Z,56.55
2022-11-13T21:12:58.162Z,51.55
2022-11-13T21:16:19.430Z,56.72
2022-11-13T21:19:40.221Z,54.25
2022-11-13T21:23:00.866Z,53.03
2022-11-13T21:26:21.590Z,55.97
2022-11-13T21:29:42.183Z,50.67
2022-11-13T21:33:03.134Z,47.85
2022-11-13T21:36:28.834Z,44.13
2022-11-13T21:39:49.588Z,44.13
2022-11-13T21:43:10.129Z,41.60
2022-11-13T21:46:33.576Z,43.45
2022-11-13T21:49:54.014Z,33.97
2022-11-13T21:53:14.593Z,46.63
2022-11-13T21:56:37.185Z,49.80
2022-11-13T21:59:57.942Z,36.13
2022-11-13T22:03:18.489Z,36.95
2022-11-13T22:06:41.938Z,38.45
2022-11-13T22:10:07.976Z,38.20
2022-11-13T22:13:31.018Z,34.75
2022-11-13T22:16:51.452Z,38.58
2022-11-13T22:20:12.489Z,37.28
2022-11-13T22:26:54.182Z,32.90
2022-11-13T22:30:15.009Z,32.78
2022-11-13T22:33:36.432Z,34.17
2022-11-13T22:36:56.836Z,34.58
2022-11-13T22:40:17.442Z,33.27
2022-11-13T22:43:40.009Z,33.22
2022-11-13T22:47:00.645Z,30.75
2022-11-13T22:50:21.541Z,30.67
2022-11-13T22:53:47.464Z,31.00
2022-11-13T22:57:08.357Z,30.95
2022-11-13T23:00:28.877Z,39.78
2022-11-13T23:03:51.728Z,34.35
2022-11-13T23:07:12.459Z,31.95
2022-11-13T23:10:33.169Z,31.35
2022-11-13T23:13:56.622Z,30.62
2022-11-13T23:17:17.081Z,32.17
2022-11-13T23:20:44.143Z,35.92
2022-11-13T23:24:05.023Z,29.20
2022-11-13T23:27:25.398Z,29.23
2022-11-13T23:30:46.077Z,27.52
2022-11-13T23:34:06.828Z,28.70
2022-11-13T23:37:27.576Z,27.58
2022-11-13T23:40:54.457Z,30.90
2022-11-13T23:44:15.064Z,29.00
2022-11-13T23:47:35.547Z,29.35
2022-11-13T23:51:00.224Z,28.27
2022-11-13T23:54:20.878Z,30.77
2022-11-13T23:57:41.199Z,29.47
